This is the latest recevied weather packets stored in our database for station/object ON6OO-13. If no packets are shown the sender has not sent any weather packets the latest 1 day(s).
| Time | Temp. | Humidity | Pressure | Rain* | Wind** | Luminosity | Snow |
|---|---|---|---|---|---|---|---|
| 1778102917 | 10° C | 83% | 1012.5 hPa | 0 mm | - | - | - |
| 1778102005 | 10° C | 83% | 1012.5 hPa | 0 mm | - | - | - |
| 1778101093 | 10° C | 83% | 1012.1 hPa | 0 mm | - | - | - |
| 1778100181 | 10° C | 82% | 1012.5 hPa | 0 mm | - | - | - |
| 1778099269 | 10° C | 83% | 1011.8 hPa | 0 mm | - | - | - |
| 1778098357 | 10° C | 84% | 1011.8 hPa | 0 mm | - | - | - |
| 1778097445 | 10° C | 84% | 1011.8 hPa | 0 mm | - | - | - |
| 1778096533 | 10° C | 85% | 1011.8 hPa | 0 mm | - | - | - |
| 1778094709 | 10° C | 85% | 1011.5 hPa | 0 mm | - | - | - |
| 1778092885 | 10.56° C | 83% | 1011.1 hPa | 0 mm | - | - | - |
| 1778089237 | 11.11° C | 74% | 1010.1 hPa | 0 mm | - | - | - |
| 1778083765 | 13.33° C | 63% | 1009.4 hPa | 0 mm | - | - | - |
| 1778070084 | 13.33° C | 67% | 1008.8 hPa | 0 mm | - | - | - |
| 1778066436 | 12.78° C | 75% | 1008.8 hPa | 0 mm | - | - | - |
| 1778065524 | 12.22° C | 78% | 1008.8 hPa | 0 mm | - | - | - |
| 1778063700 | 12.22° C | 84% | 1008.8 hPa | 0 mm | - | - | - |
| 1778061876 | 11.67° C | 87% | 1008.8 hPa | 0 mm | - | - | - |
| 1778060052 | 10.56° C | 88% | 1009.1 hPa | 0 mm | - | - | - |
| 1778059140 | 10° C | 90% | 1008.8 hPa | 0 mm | - | - | - |
| 1778058228 | 10° C | 91% | 1008.8 hPa | 0 mm | - | - | - |
| 1778057316 | 9.44° C | 93% | 1008.8 hPa | 0 mm | - | - | - |
| 1778056404 | 8.89° C | 95% | 1008.8 hPa | 0 mm | - | - | - |
| 1778054580 | 8.89° C | 97% | 1008.4 hPa | 0 mm | - | - | - |
| 1778053668 | 8.33° C | 98% | 1008.8 hPa | 0 mm | - | - | - |
| 1778052756 | 8.33° C | 98% | 1008.8 hPa | 0 mm | - | - | - |
* Rain latest hour (hover to see other rain measurements)
** Current wind speed in m/s (hover to see current wind gust speed)